Time;durP1;ratioP1;P1;durP2;ratioP2;P2;SDS_P1;SDS_P2;PMS_P1;PMS_P2;Temp;Humidity;BMP_temperature;BMP_pressure;BME280_temperature;BME280_humidity;BME280_pressure;Samples;Min_cycle;Max_cycle;Signal;HPM_P1;HPM_P2
2022/06/07 00:02:05;;;;;;;;;;;;;;;;;;5034530;28;20375;-79
2022/06/07 00:04:30;;;;;;;;;;;;;;;;;;5033963;28;19913;-79
2022/06/07 00:06:56;;;;;;;;;;;;;;;;;;5034225;28;19909;-79
2022/06/07 00:09:21;;;;;;;;;;;;;;;;;;5034213;28;19909;-78
2022/06/07 00:11:47;;;;;;;;;;;;;;;;;;5033988;28;20308;-78
2022/06/07 00:14:12;;;;;;;;;;;;;;;;;;5016254;28;19909;-79
2022/06/07 00:16:37;;;;;;;;;;;;;;;;;;5033806;28;20360;-79
2022/06/07 00:19:03;;;;;;;;;;;;;;;;;;5000315;28;19913;-79
2022/06/07 00:21:29;;;;;;;;;;;;;;;;;;5016174;28;20261;-79
2022/06/07 00:23:54;;;;;;;;;;;;;;;;;;5033453;28;20307;-80
2022/06/07 00:26:20;;;;;;;;;;;;;;;;;;5000301;28;19910;-78
2022/06/07 00:28:45;;;;;;;;;;;;;;;;;;5034300;28;19909;-77
2022/06/07 00:31:11;;;;;;;;;;;;;;;;;;5016089;28;19973;-78
2022/06/07 00:33:36;;;;;;;;;;;;;;;;;;5015804;28;19909;-80
2022/06/07 00:36:02;;;;;;;;;;;;;;;;;;5033448;28;19909;-79
2022/06/07 00:38:27;;;;;;;;;;;;;;;;;;5033939;28;19908;-78
2022/06/07 00:40:52;;;;;;;;;;;;;;;;;;5033976;28;19920;-79
2022/06/07 00:43:18;;;;;;;;;;;;;;;;;;5016307;28;19963;-79
2022/06/07 00:45:43;;;;;;;;;;;;;;;;;;5033790;28;20268;-79
2022/06/07 00:48:08;;;;;;;;;;;;;;;;;;5015587;28;20035;-79
2022/06/07 00:50:34;;;;;;;;;;;;;;;;;;5033610;28;20004;-79
2022/06/07 00:52:59;;;;;;;;;;;;;;;;;;5033143;28;19909;-80
2022/06/07 00:55:26;;;;;;;;;;;;;;;;;;5015784;28;19916;-79
2022/06/07 00:57:55;;;;;;;;;;;;;;;;;;5015625;28;19919;-78
2022/06/07 01:00:32;;;;;;;;;;;;;;;;;;5033317;28;19909;-78
2022/06/07 01:02:59;;;;;;;;;;;;;;;;;;5033171;28;19944;-78
2022/06/07 01:05:25;;;;;;;;;;;;;;;;;;4999575;28;19916;-79
2022/06/07 01:10:46;;;;;;;;;;;;;;;;;;5015821;28;19909;-79
2022/06/07 01:13:38;;;;;;;;;;;;;;;;;;5017163;28;19916;-79
2022/06/07 01:16:14;;;;;;;;;;;;;;;;;;4999182;28;19931;-79
2022/06/07 01:18:42;;;;;;;;;;;;;;;;;;4999680;28;19932;-78
2022/06/07 01:21:18;;;;;;;;;;;;;;;;;;4999236;28;19979;-78
2022/06/07 01:23:44;;;;;;;;;;;;;;;;;;5014963;28;20399;-79
2022/06/07 01:26:10;;;;;;;;;;;;;;;;;;4999059;28;19931;-80
2022/06/07 01:28:35;;;;;;;;;;;;;;;;;;5015328;28;19959;-78
2022/06/07 01:31:00;;;;;;;;;;;;;;;;;;5015081;28;19963;-78
2022/06/07 01:33:26;;;;;;;;;;;;;;;;;;5032767;28;20395;-78
2022/06/07 01:35:51;;;;;;;;;;;;;;;;;;4999024;28;20368;-80
2022/06/07 01:38:17;;;;;;;;;;;;;;;;;;5015009;28;19913;-79
2022/06/07 01:43:26;;;;;;;;;;;;;;;;;;5015208;28;19909;-78
2022/06/07 01:45:52;;;;;;;;;;;;;;;;;;4982585;28;19931;-77
2022/06/07 01:48:17;;;;;;;;;;;;;;;;;;5014808;28;19909;-79
2022/06/07 01:50:42;;;;;;;;;;;;;;;;;;5032353;28;19909;-78
2022/06/07 01:53:08;;;;;;;;;;;;;;;;;;5014641;28;19909;-78
2022/06/07 01:55:33;;;;;;;;;;;;;;;;;;4998355;28;19952;-79
2022/06/07 01:58:09;;;;;;;;;;;;;;;;;;5014792;28;19920;-78
2022/06/07 02:00:35;;;;;;;;;;;;;;;;;;4998818;28;19909;-78
2022/06/07 02:03:01;;;;;;;;;;;;;;;;;;5014484;28;20185;-79
2022/06/07 02:05:26;;;;;;;;;;;;;;;;;;4998346;28;19956;-77
2022/06/07 02:07:58;;;;;;;;;;;;;;;;;;5014603;28;19915;-79
2022/06/07 02:10:28;;;;;;;;;;;;;;;;;;4998058;28;19909;-78
2022/06/07 02:12:57;;;;;;;;;;;;;;;;;;5014359;28;20419;-79
2022/06/07 02:15:23;;;;;;;;;;;;;;;;;;5014512;28;19908;-78
2022/06/07 02:17:48;;;;;;;;;;;;;;;;;;4998116;28;19963;-79
2022/06/07 02:20:22;;;;;;;;;;;;;;;;;;5014854;28;20439;-78
2022/06/07 02:22:47;;;;;;;;;;;;;;;;;;4998189;28;19960;-79
2022/06/07 02:25:12;;;;;;;;;;;;;;;;;;4998179;28;19916;-79
2022/06/07 02:27:38;;;;;;;;;;;;;;;;;;5016423;28;19909;-79
2022/06/07 02:30:04;;;;;;;;;;;;;;;;;;5035999;28;19909;-77
2022/06/07 02:32:31;;;;;;;;;;;;;;;;;;5002360;28;20022;-78
2022/06/07 02:34:56;;;;;;;;;;;;;;;;;;5036065;28;19964;-78
2022/06/07 02:37:22;;;;;;;;;;;;;;;;;;5018305;28;20364;-78
2022/06/07 02:39:47;;;;;;;;;;;;;;;;;;5018723;28;19913;-77
2022/06/07 02:42:13;;;;;;;;;;;;;;;;;;5019969;28;19923;-77
2022/06/07 02:44:39;;;;;;;;;;;;;;;;;;5038007;28;19909;-77
2022/06/07 02:47:05;;;;;;;;;;;;;;;;;;5037267;28;19951;-78
2022/06/07 02:49:30;;;;;;;;;;;;;;;;;;5017875;28;20352;-79
2022/06/07 02:51:56;;;;;;;;;;;;;;;;;;5017991;28;19913;-78
2022/06/07 02:54:21;;;;;;;;;;;;;;;;;;4984730;28;19909;-77
2022/06/07 02:56:47;;;;;;;;;;;;;;;;;;5001498;28;19955;-77
2022/06/07 02:59:13;;;;;;;;;;;;;;;;;;5001610;28;19909;-78
2022/06/07 03:01:38;;;;;;;;;;;;;;;;;;5017683;28;20330;-78
2022/06/07 03:04:05;;;;;;;;;;;;;;;;;;5001116;28;19935;-79
2022/06/07 03:06:32;;;;;;;;;;;;;;;;;;5017179;28;19988;-79
2022/06/07 03:08:58;;;;;;;;;;;;;;;;;;5018234;28;20343;-78
2022/06/07 03:11:23;;;;;;;;;;;;;;;;;;5036273;28;19917;-78
2022/06/07 03:13:49;;;;;;;;;;;;;;;;;;5035075;28;19913;-79
2022/06/07 03:16:21;;;;;;;;;;;;;;;;;;5017247;28;19995;-78
2022/06/07 03:18:48;;;;;;;;;;;;;;;;;;5001157;28;20399;-78
2022/06/07 03:21:13;;;;;;;;;;;;;;;;;;5017124;28;19909;-77
2022/06/07 03:23:41;;;;;;;;;;;;;;;;;;5000843;28;19995;-77
2022/06/07 03:26:08;;;;;;;;;;;;;;;;;;5017163;28;19934;-78
2022/06/07 03:28:38;;;;;;;;;;;;;;;;;;5017158;28;19915;-77
2022/06/07 03:31:06;;;;;;;;;;;;;;;;;;5017058;28;20318;-77
2022/06/07 03:33:34;;;;;;;;;;;;;;;;;;5016780;28;20212;-77
2022/06/07 03:36:00;;;;;;;;;;;;;;;;;;5017215;28;19916;-77
2022/06/07 03:38:26;;;;;;;;;;;;;;;;;;5015464;28;19913;-78
2022/06/07 03:40:51;;;;;;;;;;;;;;;;;;5016853;28;20291;-78
2022/06/07 03:43:23;;;;;;;;;;;;;;;;;;5000896;28;19953;-78
2022/06/07 03:45:49;;;;;;;;;;;;;;;;;;5016885;28;19909;-78
2022/06/07 03:48:15;;;;;;;;;;;;;;;;;;5016695;28;20375;-77
2022/06/07 03:50:41;;;;;;;;;;;;;;;;;;5034129;28;19913;-78
2022/06/07 03:53:07;;;;;;;;;;;;;;;;;;5016883;28;20390;-78
2022/06/07 03:55:36;;;;;;;;;;;;;;;;;;5000828;28;19909;-78
2022/06/07 03:58:06;;;;;;;;;;;;;;;;;;5017055;28;19967;-78
2022/06/07 04:00:32;;;;;;;;;;;;;;;;;;5017530;28;19909;-78
2022/06/07 04:03:00;;;;;;;;;;;;;;;;;;5000871;28;19909;-77
2022/06/07 04:05:26;;;;;;;;;;;;;;;;;;5000677;28;19909;-79
2022/06/07 04:08:11;;;;;;;;;;;;;;;;;;5001003;28;19909;-77
2022/06/07 04:10:37;;;;;;;;;;;;;;;;;;5017576;28;19909;-79
2022/06/07 04:13:03;;;;;;;;;;;;;;;;;;5018318;28;19911;-78
2022/06/07 04:15:28;;;;;;;;;;;;;;;;;;5021100;28;20355;-79
2022/06/07 04:17:55;;;;;;;;;;;;;;;;;;5027800;28;19935;-78
2022/06/07 04:20:27;;;;;;;;;;;;;;;;;;5029699;28;19909;-78
2022/06/07 04:22:54;;;;;;;;;;;;;;;;;;5026052;28;19952;-79
2022/06/07 04:25:20;;;;;;;;;;;;;;;;;;5026968;28;19909;-79
2022/06/07 04:27:46;;;;;;;;;;;;;;;;;;4984011;28;19936;-78
2022/06/07 04:30:14;;;;;;;;;;;;;;;;;;4984101;28;20003;-77
2022/06/07 04:32:46;;;;;;;;;;;;;;;;;;5016270;28;19943;-78
2022/06/07 04:35:15;;;;;;;;;;;;;;;;;;5019421;28;19917;-78
2022/06/07 04:37:40;;;;;;;;;;;;;;;;;;5016871;28;19913;-79
2022/06/07 04:40:06;;;;;;;;;;;;;;;;;;5015955;28;19909;-79
2022/06/07 04:42:32;;;;;;;;;;;;;;;;;;5015547;28;20314;-79
2022/06/07 04:45:02;;;;;;;;;;;;;;;;;;4999001;28;20296;-78
2022/06/07 04:47:53;;;;;;;;;;;;;;;;;;5015392;28;20418;-78
2022/06/07 04:50:19;;;;;;;;;;;;;;;;;;5015003;28;19909;-79
2022/06/07 04:52:45;;;;;;;;;;;;;;;;;;5015692;28;19948;-78
2022/06/07 04:55:11;;;;;;;;;;;;;;;;;;5015554;28;19905;-78
2022/06/07 04:57:36;;;;;;;;;;;;;;;;;;5033061;28;19960;-77
2022/06/07 05:00:02;;;;;;;;;;;;;;;;;;5015369;28;19909;-78
2022/06/07 05:02:29;;;;;;;;;;;;;;;;;;5015018;28;20364;-78
2022/06/07 05:04:55;;;;;;;;;;;;;;;;;;5015154;28;19905;-78
2022/06/07 05:07:24;;;;;;;;;;;;;;;;;;4999248;28;19920;-78
2022/06/07 05:09:58;;;;;;;;;;;;;;;;;;4998812;28;19920;-79
2022/06/07 05:12:32;;;;;;;;;;;;;;;;;;5014700;28;19955;-78
2022/06/07 05:14:58;;;;;;;;;;;;;;;;;;5014916;28;19909;-78
2022/06/07 05:17:30;;;;;;;;;;;;;;;;;;5015059;28;20405;-78
2022/06/07 05:19:58;;;;;;;;;;;;;;;;;;4999609;28;19913;-77
2022/06/07 05:22:24;;;;;;;;;;;;;;;;;;5014969;28;19917;-77
2022/06/07 05:24:53;;;;;;;;;;;;;;;;;;5052412;22;19921;-75
2022/06/07 05:27:24;;;;;;;;;;;;;;;;;;5054575;28;19947;-76
2022/06/07 05:29:50;;;;;;;;;;;;;;;;;;5054615;28;19975;-75
2022/06/07 05:32:30;;;;;;;;;;;;;;;;;;5041337;28;19908;-76
2022/06/07 05:34:57;;;;;;;;;;;;;;;;;;5053945;28;20004;-74
2022/06/07 05:37:22;;;;;;;;;;;;;;;;;;5054185;28;19913;-76
2022/06/07 05:39:57;;;;;;;;;;;;;;;;;;5054347;28;19908;-75
2022/06/07 05:42:23;;;;;;;;;;;;;;;;;;5034343;28;19908;-76
2022/06/07 05:44:49;;;;;;;;;;;;;;;;;;5053577;28;20222;-76
2022/06/07 05:47:15;;;;;;;;;;;;;;;;;;5037701;28;20378;-74
2022/06/07 05:49:47;;;;;;;;;;;;;;;;;;5054188;28;19915;-75
2022/06/07 05:52:16;;;;;;;;;;;;;;;;;;5054156;28;20014;-75
2022/06/07 05:54:44;;;;;;;;;;;;;;;;;;5054294;28;19969;-75
2022/06/07 05:57:10;;;;;;;;;;;;;;;;;;5054314;28;19920;-74
2022/06/07 05:59:37;;;;;;;;;;;;;;;;;;5053946;28;20405;-74
2022/06/07 06:02:02;;;;;;;;;;;;;;;;;;5055086;28;19916;-76
2022/06/07 06:04:33;;;;;;;;;;;;;;;;;;5057695;28;19967;-76
2022/06/07 06:07:01;;;;;;;;;;;;;;;;;;5041945;28;19924;-76
2022/06/07 06:12:16;;;;;;;;;;;;;;;;;;5058395;28;20370;-75
2022/06/07 06:14:52;;;;;;;;;;;;;;;;;;5058231;28;19961;-76
2022/06/07 06:17:24;;;;;;;;;;;;;;;;;;5057885;28;19913;-75
2022/06/07 06:19:55;;;;;;;;;;;;;;;;;;5058173;28;20011;-73
2022/06/07 06:22:21;;;;;;;;;;;;;;;;;;5042587;28;20374;-75
2022/06/07 06:24:54;;;;;;;;;;;;;;;;;;5026169;28;19935;-75
2022/06/07 06:27:21;;;;;;;;;;;;;;;;;;5054628;28;20363;-76
2022/06/07 06:29:49;;;;;;;;;;;;;;;;;;5057832;28;19960;-74
2022/06/07 06:32:14;;;;;;;;;;;;;;;;;;5058526;28;20005;-76
2022/06/07 06:34:43;;;;;;;;;;;;;;;;;;5041429;28;19908;-75
2022/06/07 06:37:10;;;;;;;;;;;;;;;;;;5059348;28;19935;-76
2022/06/07 06:39:38;;;;;;;;;;;;;;;;;;5042716;28;19908;-76
2022/06/07 06:42:04;;;;;;;;;;;;;;;;;;5042398;28;20399;-76
2022/06/07 06:44:40;;;;;;;;;;;;;;;;;;5058556;28;19908;-76
2022/06/07 06:47:07;;;;;;;;;;;;;;;;;;5077230;28;19912;-76
2022/06/07 06:49:32;;;;;;;;;;;;;;;;;;5041579;28;19999;-76
2022/06/07 06:51:59;;;;;;;;;;;;;;;;;;5057719;28;20005;-76
2022/06/07 06:54:34;;;;;;;;;;;;;;;;;;5040561;28;19908;-75
2022/06/07 06:57:04;;;;;;;;;;;;;;;;;;5041421;28;19913;-76
2022/06/07 06:59:31;;;;;;;;;;;;;;;;;;5057998;28;19975;-75
2022/06/07 07:01:59;;;;;;;;;;;;;;;;;;5042915;28;19998;-74
2022/06/07 07:04:26;;;;;;;;;;;;;;;;;;5057388;28;19909;-76
2022/06/07 07:06:54;;;;;;;;;;;;;;;;;;5074909;28;19908;-74
2022/06/07 07:09:24;;;;;;;;;;;;;;;;;;5040453;28;20022;-74
2022/06/07 07:11:49;;;;;;;;;;;;;;;;;;5040254;28;19915;-76
2022/06/07 07:14:19;;;;;;;;;;;;;;;;;;5057369;28;19908;-75
2022/06/07 07:16:44;;;;;;;;;;;;;;;;;;5057019;28;20286;-76
2022/06/07 07:19:14;;;;;;;;;;;;;;;;;;5041842;28;19904;-75
2022/06/07 07:21:39;;;;;;;;;;;;;;;;;;5057299;28;19908;-75
2022/06/07 07:24:08;;;;;;;;;;;;;;;;;;5040350;28;19938;-75
2022/06/07 07:26:36;;;;;;;;;;;;;;;;;;5058204;28;19908;-75
2022/06/07 07:29:05;;;;;;;;;;;;;;;;;;5056550;28;19915;-77
2022/06/07 07:31:31;;;;;;;;;;;;;;;;;;5056670;28;19908;-76
2022/06/07 07:33:57;;;;;;;;;;;;;;;;;;5056134;28;19920;-76
2022/06/07 07:36:22;;;;;;;;;;;;;;;;;;5074188;28;19908;-77
2022/06/07 07:38:48;;;;;;;;;;;;;;;;;;5056482;28;19912;-76
2022/06/07 07:41:14;;;;;;;;;;;;;;;;;;5074284;28;19935;-75
2022/06/07 07:43:39;;;;;;;;;;;;;;;;;;5039577;28;19915;-76
2022/06/07 07:46:05;;;;;;;;;;;;;;;;;;5056488;28;19908;-76
2022/06/07 07:48:31;;;;;;;;;;;;;;;;;;5056413;28;20389;-75
2022/06/07 07:50:56;;;;;;;;;;;;;;;;;;5074911;28;19912;-76
2022/06/07 07:53:22;;;;;;;;;;;;;;;;;;5039779;28;19923;-76
2022/06/07 07:55:48;;;;;;;;;;;;;;;;;;5056332;28;20290;-74
2022/06/07 07:58:14;;;;;;;;;;;;;;;;;;5056062;28;20298;-76
2022/06/07 08:00:40;;;;;;;;;;;;;;;;;;5056094;28;20316;-74
2022/06/07 08:03:07;;;;;;;;;;;;;;;;;;5040661;28;19916;-77
2022/06/07 08:05:38;;;;;;;;;;;;;;;;;;5056048;28;20355;-76
2022/06/07 08:08:03;;;;;;;;;;;;;;;;;;5055817;28;19908;-75
2022/06/07 08:10:29;;;;;;;;;;;;;;;;;;5074083;28;19915;-75
2022/06/07 08:12:55;;;;;;;;;;;;;;;;;;5023653;28;19943;-75
2022/06/07 08:15:23;;;;;;;;;;;;;;;;;;5056042;28;19912;-76
2022/06/07 08:17:49;;;;;;;;;;;;;;;;;;5073521;28;19913;-76
2022/06/07 08:20:14;;;;;;;;;;;;;;;;;;5073775;28;19944;-77
2022/06/07 08:22:40;;;;;;;;;;;;;;;;;;5056234;28;20392;-75
2022/06/07 08:25:05;;;;;;;;;;;;;;;;;;5055084;28;19913;-75
2022/06/07 08:27:31;;;;;;;;;;;;;;;;;;5056246;28;19908;-75
2022/06/07 08:29:56;;;;;;;;;;;;;;;;;;5073509;28;19915;-76
2022/06/07 08:32:22;;;;;;;;;;;;;;;;;;5055618;28;20366;-76
2022/06/07 08:37:37;;;;;;;;;;;;;;;;;;5073808;28;19916;-75
2022/06/07 08:40:02;;;;;;;;;;;;;;;;;;5073173;28;20394;-76
2022/06/07 08:42:27;;;;;;;;;;;;;;;;;;5073240;28;19904;-76
2022/06/07 08:44:53;;;;;;;;;;;;;;;;;;5073225;28;19912;-76
2022/06/07 08:47:19;;;;;;;;;;;;;;;;;;5055798;28;20003;-76
2022/06/07 08:49:44;;;;;;;;;;;;;;;;;;5039239;28;19908;-75
2022/06/07 08:52:10;;;;;;;;;;;;;;;;;;5076698;28;19909;-76
2022/06/07 08:54:35;;;;;;;;;;;;;;;;;;5056046;28;19915;-76
2022/06/07 08:57:01;;;;;;;;;;;;;;;;;;5056850;28;20115;-76
2022/06/07 08:59:26;;;;;;;;;;;;;;;;;;5073767;28;19982;-76
2022/06/07 09:01:52;;;;;;;;;;;;;;;;;;5038742;28;19919;-74
2022/06/07 09:04:17;;;;;;;;;;;;;;;;;;5055534;28;19915;-75
2022/06/07 09:06:42;;;;;;;;;;;;;;;;;;5072981;28;20347;-75
2022/06/07 09:09:08;;;;;;;;;;;;;;;;;;5055276;28;20313;-76
2022/06/07 09:14:18;;;;;;;;;;;;;;;;;;5055022;28;19944;-75
2022/06/07 09:16:43;;;;;;;;;;;;;;;;;;5072663;28;20359;-75
2022/06/07 09:19:09;;;;;;;;;;;;;;;;;;5054449;28;19915;-75
2022/06/07 09:21:35;;;;;;;;;;;;;;;;;;5072726;28;19908;-75
2022/06/07 09:24:02;;;;;;;;;;;;;;;;;;5072097;28;19913;-74
2022/06/07 09:26:27;;;;;;;;;;;;;;;;;;5054306;28;20352;-74
2022/06/07 09:28:53;;;;;;;;;;;;;;;;;;5072437;28;19916;-73
2022/06/07 09:31:18;;;;;;;;;;;;;;;;;;5072315;28;19919;-75
2022/06/07 09:33:44;;;;;;;;;;;;;;;;;;5053982;28;20453;-74
2022/06/07 09:36:09;;;;;;;;;;;;;;;;;;5053625;28;19909;-75
2022/06/07 09:38:38;;;;;;;;;;;;;;;;;;5071817;28;20076;-76
2022/06/07 09:41:04;;;;;;;;;;;;;;;;;;5072495;28;19915;-76
2022/06/07 09:43:29;;;;;;;;;;;;;;;;;;5071902;28;19908;-75
2022/06/07 09:45:54;;;;;;;;;;;;;;;;;;5072763;28;20382;-75
2022/06/07 09:48:20;;;;;;;;;;;;;;;;;;5072588;28;19915;-75
2022/06/07 09:50:45;;;;;;;;;;;;;;;;;;5054422;28;20291;-76
2022/06/07 09:53:11;;;;;;;;;;;;;;;;;;5054114;28;20424;-76
2022/06/07 09:55:36;;;;;;;;;;;;;;;;;;5072510;28;19915;-77
2022/06/07 09:58:01;;;;;;;;;;;;;;;;;;5037248;28;20371;-76
2022/06/07 10:00:27;;;;;;;;;;;;;;;;;;5054146;28;20413;-76
2022/06/07 10:02:53;;;;;;;;;;;;;;;;;;5054309;28;20308;-74
2022/06/07 10:05:19;;;;;;;;;;;;;;;;;;5072315;28;19939;-75
2022/06/07 10:07:47;;;;;;;;;;;;;;;;;;5072538;28;19998;-75
2022/06/07 10:10:12;;;;;;;;;;;;;;;;;;5072228;28;20389;-76
2022/06/07 10:12:38;;;;;;;;;;;;;;;;;;5054058;28;19908;-75
2022/06/07 10:15:03;;;;;;;;;;;;;;;;;;5072443;28;19927;-76
2022/06/07 10:17:29;;;;;;;;;;;;;;;;;;5072137;28;19924;-76
2022/06/07 10:19:54;;;;;;;;;;;;;;;;;;5054433;28;20275;-76
2022/06/07 10:22:20;;;;;;;;;;;;;;;;;;5037418;28;19909;-76
2022/06/07 10:24:45;;;;;;;;;;;;;;;;;;5071437;28;19912;-75
2022/06/07 10:27:14;;;;;;;;;;;;;;;;;;5071982;28;20401;-76
2022/06/07 10:29:40;;;;;;;;;;;;;;;;;;5071926;28;19916;-75
2022/06/07 10:32:06;;;;;;;;;;;;;;;;;;5053966;28;19908;-77
2022/06/07 10:34:31;;;;;;;;;;;;;;;;;;5071183;28;19919;-76
2022/06/07 10:36:56;;;;;;;;;;;;;;;;;;5071858;28;19912;-75
2022/06/07 10:39:22;;;;;;;;;;;;;;;;;;5072255;28;19935;-75
2022/06/07 10:41:47;;;;;;;;;;;;;;;;;;5053624;28;19942;-76
2022/06/07 10:44:13;;;;;;;;;;;;;;;;;;5071220;28;19912;-76
2022/06/07 10:46:38;;;;;;;;;;;;;;;;;;5037672;28;19970;-76
2022/06/07 10:49:03;;;;;;;;;;;;;;;;;;5056120;28;20367;-75
2022/06/07 10:54:14;;;;;;;;;;;;;;;;;;5057348;28;19909;-75
2022/06/07 10:56:39;;;;;;;;;;;;;;;;;;5075152;28;20197;-76
2022/06/07 10:59:04;;;;;;;;;;;;;;;;;;5056877;28;20294;-76
2022/06/07 11:01:30;;;;;;;;;;;;;;;;;;5075726;28;20003;-75
2022/06/07 11:03:55;;;;;;;;;;;;;;;;;;5074200;28;19954;-76
2022/06/07 11:09:19;;;;;;;;;;;;;;;;;;5074529;28;19908;-76
2022/06/07 11:11:45;;;;;;;;;;;;;;;;;;5057206;28;19908;-76
2022/06/07 11:14:10;;;;;;;;;;;;;;;;;;5074624;28;20049;-75
2022/06/07 11:16:35;;;;;;;;;;;;;;;;;;5074691;28;19908;-75
2022/06/07 11:19:01;;;;;;;;;;;;;;;;;;5074427;28;20298;-75
2022/06/07 11:21:26;;;;;;;;;;;;;;;;;;5074294;28;19909;-77
2022/06/07 11:23:52;;;;;;;;;;;;;;;;;;5074621;28;19912;-75
2022/06/07 11:26:18;;;;;;;;;;;;;;;;;;5065866;22;19963;-76
2022/06/07 11:28:43;;;;;;;;;;;;;;;;;;5054526;28;19908;-78
2022/06/07 11:31:09;;;;;;;;;;;;;;;;;;5054454;28;19912;-77
2022/06/07 11:33:36;;;;;;;;;;;;;;;;;;5017372;28;19909;-76
2022/06/07 11:36:01;;;;;;;;;;;;;;;;;;5033531;28;19956;-77
2022/06/07 11:38:27;;;;;;;;;;;;;;;;;;5016446;28;19955;-77
2022/06/07 11:41:36;;;;;;;;;;;;;;;;;;5053831;28;20325;-77
2022/06/07 11:43:38;;;;;;;;;;;;;;;;;;5053308;28;19913;-77
2022/06/07 11:46:03;;;;;;;;;;;;;;;;;;5032512;28;20256;-78
2022/06/07 11:48:30;;;;;;;;;;;;;;;;;;5050478;28;20490;-77
2022/06/07 11:50:55;;;;;;;;;;;;;;;;;;5032384;28;20527;-77
2022/06/07 11:53:21;;;;;;;;;;;;;;;;;;5049466;28;19909;-77
2022/06/07 11:55:46;;;;;;;;;;;;;;;;;;5035511;28;19959;-78
2022/06/07 11:58:12;;;;;;;;;;;;;;;;;;5032930;28;19913;-78
2022/06/07 12:00:37;;;;;;;;;;;;;;;;;;5033304;28;19955;-78
2022/06/07 12:03:03;;;;;;;;;;;;;;;;;;5032989;28;19909;-78
2022/06/07 12:05:29;;;;;;;;;;;;;;;;;;5032551;28;20360;-77
2022/06/07 12:07:55;;;;;;;;;;;;;;;;;;5053623;28;19908;-78
2022/06/07 12:10:20;;;;;;;;;;;;;;;;;;5053862;28;19931;-79
2022/06/07 12:12:46;;;;;;;;;;;;;;;;;;5034851;28;20016;-77
2022/06/07 12:15:11;;;;;;;;;;;;;;;;;;5032493;28;19952;-78
2022/06/07 12:17:36;;;;;;;;;;;;;;;;;;5016929;28;19913;-78
2022/06/07 12:20:02;;;;;;;;;;;;;;;;;;4999600;28;19909;-78
2022/06/07 12:22:30;;;;;;;;;;;;;;;;;;5032338;28;19909;-78
2022/06/07 12:24:56;;;;;;;;;;;;;;;;;;5052939;28;19920;-79
2022/06/07 12:27:21;;;;;;;;;;;;;;;;;;5032081;28;19916;-80
2022/06/07 12:29:46;;;;;;;;;;;;;;;;;;5052368;28;20474;-77
2022/06/07 12:32:12;;;;;;;;;;;;;;;;;;5015059;28;19909;-79
2022/06/07 12:34:37;;;;;;;;;;;;;;;;;;5032254;28;20430;-78
2022/06/07 12:37:03;;;;;;;;;;;;;;;;;;5031008;28;20390;-79
2022/06/07 12:39:28;;;;;;;;;;;;;;;;;;5048930;28;19913;-77
2022/06/07 12:41:54;;;;;;;;;;;;;;;;;;5052540;28;19909;-77
2022/06/07 12:44:20;;;;;;;;;;;;;;;;;;5052087;28;20062;-78
2022/06/07 12:46:46;;;;;;;;;;;;;;;;;;5034045;28;20342;-78
2022/06/07 12:49:11;;;;;;;;;;;;;;;;;;5031319;28;19909;-78
2022/06/07 12:51:37;;;;;;;;;;;;;;;;;;5050123;28;20284;-79
2022/06/07 12:54:02;;;;;;;;;;;;;;;;;;5052417;28;19920;-78
2022/06/07 12:56:28;;;;;;;;;;;;;;;;;;5031798;28;19909;-78
2022/06/07 12:58:55;;;;;;;;;;;;;;;;;;5052446;28;19908;-78
2022/06/07 13:01:21;;;;;;;;;;;;;;;;;;5015054;28;20371;-76
2022/06/07 13:03:46;;;;;;;;;;;;;;;;;;5051557;28;19909;-78
2022/06/07 13:06:12;;;;;;;;;;;;;;;;;;5030961;28;20415;-77
2022/06/07 13:08:37;;;;;;;;;;;;;;;;;;5032083;28;20039;-78
2022/06/07 13:11:02;;;;;;;;;;;;;;;;;;5051909;28;19931;-77
2022/06/07 13:13:28;;;;;;;;;;;;;;;;;;5052387;28;19905;-78
2022/06/07 13:15:54;;;;;;;;;;;;;;;;;;5014032;28;20004;-77
2022/06/07 13:18:20;;;;;;;;;;;;;;;;;;5047583;28;19970;-77
2022/06/07 13:20:46;;;;;;;;;;;;;;;;;;5052389;28;19912;-79
2022/06/07 13:23:12;;;;;;;;;;;;;;;;;;5030466;28;20261;-78
2022/06/07 13:25:37;;;;;;;;;;;;;;;;;;5031945;28;19967;-78
2022/06/07 13:28:03;;;;;;;;;;;;;;;;;;5030971;28;20423;-78
2022/06/07 13:30:28;;;;;;;;;;;;;;;;;;5048478;28;19915;-77
2022/06/07 13:32:53;;;;;;;;;;;;;;;;;;5052606;28;19909;-77
2022/06/07 13:35:19;;;;;;;;;;;;;;;;;;5014841;28;20007;-77
2022/06/07 13:37:44;;;;;;;;;;;;;;;;;;5050439;28;19913;-79
2022/06/07 13:40:10;;;;;;;;;;;;;;;;;;5030753;28;20007;-78
2022/06/07 13:42:35;;;;;;;;;;;;;;;;;;5049319;28;20321;-79
2022/06/07 13:45:01;;;;;;;;;;;;;;;;;;5051781;28;19916;-78
2022/06/07 13:47:26;;;;;;;;;;;;;;;;;;5051615;28;19909;-77
2022/06/07 13:55:23;;;;;;;;;;;;;;;;;;5030719;28;19952;-79
2022/06/07 13:57:48;;;;;;;;;;;;;;;;;;5055154;28;19991;-78
2022/06/07 14:00:14;;;;;;;;;;;;;;;;;;5050891;28;20411;-78
2022/06/07 14:02:40;;;;;;;;;;;;;;;;;;5052241;28;19912;-79
2022/06/07 14:05:05;;;;;;;;;;;;;;;;;;5051648;28;19909;-79
2022/06/07 14:07:31;;;;;;;;;;;;;;;;;;5051034;28;20003;-78
2022/06/07 14:09:56;;;;;;;;;;;;;;;;;;5071966;28;19912;-78
2022/06/07 14:12:22;;;;;;;;;;;;;;;;;;5050407;28;20084;-79
2022/06/07 14:14:47;;;;;;;;;;;;;;;;;;5036407;28;20379;-80
2022/06/07 14:17:13;;;;;;;;;;;;;;;;;;5033134;28;19919;-78
2022/06/07 14:19:38;;;;;;;;;;;;;;;;;;5069800;28;19908;-79
2022/06/07 14:22:04;;;;;;;;;;;;;;;;;;5071161;28;19908;-79
2022/06/07 14:24:30;;;;;;;;;;;;;;;;;;5074318;28;19920;-78
2022/06/07 14:26:55;;;;;;;;;;;;;;;;;;5075681;28;19915;-78
2022/06/07 14:29:22;;;;;;;;;;;;;;;;;;5054351;28;19927;-79
2022/06/07 14:31:47;;;;;;;;;;;;;;;;;;5074539;28;19920;-78
2022/06/07 14:34:13;;;;;;;;;;;;;;;;;;5074942;28;19923;-79
2022/06/07 14:36:38;;;;;;;;;;;;;;;;;;5038694;28;19909;-80
2022/06/07 14:39:13;;;;;;;;;;;;;;;;;;5075146;28;19931;-80
2022/06/07 14:41:38;;;;;;;;;;;;;;;;;;5074939;28;19908;-79
2022/06/07 14:44:04;;;;;;;;;;;;;;;;;;5074749;28;19908;-80
2022/06/07 14:46:29;;;;;;;;;;;;;;;;;;5053777;28;19975;-79
2022/06/07 14:48:55;;;;;;;;;;;;;;;;;;5074949;28;20371;-78
2022/06/07 14:51:20;;;;;;;;;;;;;;;;;;5075111;28;20424;-78
2022/06/07 14:53:46;;;;;;;;;;;;;;;;;;5039674;28;20434;-79
2022/06/07 14:56:11;;;;;;;;;;;;;;;;;;5053510;28;19909;-78
2022/06/07 14:58:37;;;;;;;;;;;;;;;;;;5055200;28;19912;-79
2022/06/07 15:01:02;;;;;;;;;;;;;;;;;;5053870;28;19909;-79
2022/06/07 15:03:27;;;;;;;;;;;;;;;;;;5053229;28;19917;-79
2022/06/07 15:05:53;;;;;;;;;;;;;;;;;;5053282;28;19915;-79
2022/06/07 15:08:19;;;;;;;;;;;;;;;;;;5053399;28;19908;-79
2022/06/07 15:10:47;;;;;;;;;;;;;;;;;;5073790;28;19908;-79
2022/06/07 15:13:13;;;;;;;;;;;;;;;;;;5036511;28;19904;-80
2022/06/07 15:15:38;;;;;;;;;;;;;;;;;;5072792;28;19914;-79
2022/06/07 15:18:03;;;;;;;;;;;;;;;;;;5053057;28;20276;-79
2022/06/07 15:20:29;;;;;;;;;;;;;;;;;;5053486;28;20367;-79
2022/06/07 15:22:54;;;;;;;;;;;;;;;;;;5074147;28;19915;-79
2022/06/07 15:25:20;;;;;;;;;;;;;;;;;;5052799;28;20350;-78
2022/06/07 15:27:46;;;;;;;;;;;;;;;;;;5055439;28;19908;-79
2022/06/07 15:30:14;;;;;;;;;;;;;;;;;;5052916;28;19909;-79
2022/06/07 15:32:39;;;;;;;;;;;;;;;;;;5054429;28;19918;-79
2022/06/07 15:35:05;;;;;;;;;;;;;;;;;;5052824;28;19908;-79
2022/06/07 15:37:30;;;;;;;;;;;;;;;;;;5053077;28;19992;-79
2022/06/07 15:39:56;;;;;;;;;;;;;;;;;;5053197;28;19951;-79
2022/06/07 15:45:05;;;;;;;;;;;;;;;;;;5074344;28;19908;-78
2022/06/07 15:47:31;;;;;;;;;;;;;;;;;;5073496;28;19999;-79
2022/06/07 15:49:56;;;;;;;;;;;;;;;;;;5052909;28;20397;-79
2022/06/07 15:52:22;;;;;;;;;;;;;;;;;;5052862;28;19944;-79
2022/06/07 15:54:47;;;;;;;;;;;;;;;;;;5055666;28;19962;-79
2022/06/07 15:57:13;;;;;;;;;;;;;;;;;;5020023;28;19913;-78
2022/06/07 15:59:38;;;;;;;;;;;;;;;;;;5072313;28;19912;-79
2022/06/07 16:02:04;;;;;;;;;;;;;;;;;;5052147;28;19908;-78
2022/06/07 16:04:29;;;;;;;;;;;;;;;;;;5052473;28;19916;-79
2022/06/07 16:06:55;;;;;;;;;;;;;;;;;;5052515;28;20369;-79
2022/06/07 16:09:21;;;;;;;;;;;;;;;;;;5051816;28;20663;-78
2022/06/07 16:11:46;;;;;;;;;;;;;;;;;;5037932;28;19916;-79
2022/06/07 16:14:12;;;;;;;;;;;;;;;;;;5052179;28;20006;-78
2022/06/07 16:16:37;;;;;;;;;;;;;;;;;;5071277;28;19908;-79
2022/06/07 16:19:02;;;;;;;;;;;;;;;;;;5051851;28;19916;-78
2022/06/07 16:21:28;;;;;;;;;;;;;;;;;;5070116;28;19908;-78
2022/06/07 16:23:55;;;;;;;;;;;;;;;;;;5073291;28;19912;-78
2022/06/07 16:26:23;;;;;;;;;;;;;;;;;;5035453;28;19912;-78
2022/06/07 16:34:17;;;;;;;;;;;;;;;;;;5051883;28;19908;-79
2022/06/07 16:36:43;;;;;;;;;;;;;;;;;;5037004;28;20436;-77
2022/06/07 16:39:09;;;;;;;;;;;;;;;;;;5051612;28;19915;-79
2022/06/07 16:41:34;;;;;;;;;;;;;;;;;;5070180;28;19908;-79
2022/06/07 16:44:03;;;;;;;;;;;;;;;;;;5034862;28;19966;-78
2022/06/07 16:46:29;;;;;;;;;;;;;;;;;;5025622;28;19920;-80
2022/06/07 16:48:55;;;;;;;;;;;;;;;;;;5030964;28;20363;-79
2022/06/07 16:51:22;;;;;;;;;;;;;;;;;;5035305;28;19932;-80
2022/06/07 16:53:48;;;;;;;;;;;;;;;;;;5054275;28;19987;-80
2022/06/07 16:56:13;;;;;;;;;;;;;;;;;;5051353;28;19951;-80
2022/06/07 16:58:38;;;;;;;;;;;;;;;;;;5036305;28;20268;-80
2022/06/07 17:01:04;;;;;;;;;;;;;;;;;;5018558;28;20379;-82
2022/06/07 17:03:29;;;;;;;;;;;;;;;;;;5045193;28;20398;-81
2022/06/07 17:05:55;;;;;;;;;;;;;;;;;;5068087;28;19983;-82
2022/06/07 17:08:24;;;;;;;;;;;;;;;;;;5051288;28;19913;-80
2022/06/07 17:10:49;;;;;;;;;;;;;;;;;;5055818;28;19998;-79
2022/06/07 17:13:16;;;;;;;;;;;;;;;;;;5034864;28;19993;-79
2022/06/07 17:15:41;;;;;;;;;;;;;;;;;;5019849;28;19915;-78